createdAt,value
2019-02-27T00:00:22.403Z,10.20
2019-02-27T00:02:56.139Z,10.33
2019-02-27T00:05:26.217Z,10.20
2019-02-27T00:07:56.476Z,10.07
2019-02-27T00:10:27.100Z,10.00
2019-02-27T00:12:57.440Z,11.43
2019-02-27T00:15:27.760Z,9.93
2019-02-27T00:17:58.066Z,10.07
2019-02-27T00:20:28.206Z,11.80
2019-02-27T00:22:58.438Z,9.57
2019-02-27T00:25:28.671Z,9.57
2019-02-27T00:27:58.824Z,10.83
2019-02-27T00:30:28.998Z,9.53
2019-02-27T00:32:59.113Z,9.60
2019-02-27T00:35:29.348Z,10.80
2019-02-27T00:37:59.608Z,11.33
2019-02-27T00:40:29.834Z,10.87
2019-02-27T00:43:01.642Z,11.43
2019-02-27T00:45:31.812Z,12.50
2019-02-27T00:48:02.171Z,12.10
2019-02-27T00:50:32.419Z,11.83
2019-02-27T00:53:02.861Z,11.10
2019-02-27T00:55:33.023Z,11.03
2019-02-27T00:58:03.229Z,11.80
2019-02-27T01:00:33.269Z,12.03
2019-02-27T01:03:03.517Z,11.67
2019-02-27T01:05:34.953Z,11.57
2019-02-27T01:08:05.717Z,11.73
2019-02-27T01:10:35.887Z,12.27
2019-02-27T01:13:06.138Z,10.43
2019-02-27T01:15:36.253Z,9.17
2019-02-27T01:18:06.421Z,10.53
2019-02-27T01:20:37.815Z,11.57
2019-02-27T01:23:10.930Z,10.43
2019-02-27T01:25:39.844Z,10.93
2019-02-27T01:28:11.033Z,12.87
2019-02-27T01:30:41.906Z,13.23
2019-02-27T01:33:11.910Z,13.60
2019-02-27T01:35:41.979Z,14.60
2019-02-27T01:38:12.266Z,13.47
2019-02-27T01:40:42.386Z,15.03
2019-02-27T01:43:12.432Z,14.28
2019-02-27T01:45:42.639Z,14.30
2019-02-27T01:48:12.762Z,13.00
2019-02-27T01:50:43.018Z,12.87
2019-02-27T01:53:13.176Z,11.03
2019-02-27T01:55:46.213Z,11.07
2019-02-27T01:58:16.333Z,8.63
2019-02-27T02:00:46.607Z,10.23
2019-02-27T02:03:17.013Z,9.73
2019-02-27T02:05:47.324Z,9.70
2019-02-27T02:08:17.429Z,9.30
2019-02-27T02:10:47.611Z,8.50
2019-02-27T02:13:21.787Z,7.87
2019-02-27T02:16:34.147Z,8.43
2019-02-27T02:19:31.797Z,7.87
2019-02-27T02:22:29.223Z,7.93
2019-02-27T02:25:25.127Z,8.03
2019-02-27T02:28:21.315Z,8.47
2019-02-27T02:31:13.859Z,7.83
2019-02-27T02:34:14.307Z,7.77
2019-02-27T02:37:22.956Z,7.73
2019-02-27T02:40:08.945Z,8.10
2019-02-27T02:43:17.570Z,7.87
2019-02-27T02:45:54.631Z,6.97
2019-02-27T02:49:06.798Z,8.20
2019-02-27T02:52:04.369Z,8.60
2019-02-27T02:55:12.500Z,7.43
2019-02-27T02:58:04.190Z,7.60
2019-02-27T03:00:51.197Z,8.10
2019-02-27T03:03:44.019Z,9.37
2019-02-27T03:06:35.073Z,7.73
2019-02-27T03:09:30.643Z,8.33
2019-02-27T03:12:16.878Z,8.13
2019-02-27T03:15:13.940Z,8.33
2019-02-27T03:18:08.692Z,7.67
2019-02-27T03:21:04.703Z,7.80
2019-02-27T03:23:52.567Z,8.40
2019-02-27T03:26:51.684Z,8.10
2019-02-27T03:29:53.916Z,7.83
2019-02-27T03:32:46.493Z,7.70
2019-02-27T03:35:48.587Z,8.77
2019-02-27T03:38:43.465Z,8.70
2019-02-27T03:41:58.478Z,9.03
2019-02-27T03:44:46.361Z,8.97
2019-02-27T03:47:27.231Z,9.03
2019-02-27T03:50:26.007Z,9.03
2019-02-27T03:53:34.608Z,8.53
2019-02-27T03:56:28.523Z,9.17
2019-02-27T03:59:26.353Z,8.80
2019-02-27T04:02:13.111Z,8.60
2019-02-27T04:05:21.844Z,9.93
2019-02-27T04:08:32.236Z,9.07
2019-02-27T04:11:05.507Z,9.97
2019-02-27T04:13:34.182Z,9.23
2019-02-27T04:16:04.314Z,10.00
2019-02-27T04:18:32.924Z,9.57
2019-02-27T04:21:02.998Z,9.13
2019-02-27T04:23:33.566Z,9.47
2019-02-27T04:26:05.748Z,9.07
2019-02-27T04:28:35.272Z,9.47
2019-02-27T04:31:05.356Z,9.73
2019-02-27T04:33:35.659Z,9.87
2019-02-27T04:36:05.752Z,9.10
2019-02-27T04:38:35.854Z,9.73
2019-02-27T04:41:05.887Z,8.93
2019-02-27T04:43:35.956Z,10.17
2019-02-27T04:46:06.020Z,9.13
2019-02-27T04:48:36.177Z,8.97
2019-02-27T04:51:06.370Z,9.03
2019-02-27T04:53:36.513Z,9.83
2019-02-27T04:56:06.846Z,9.00
2019-02-27T04:58:36.990Z,9.07
2019-02-27T05:01:07.140Z,8.80
2019-02-27T05:03:37.518Z,10.83
2019-02-27T05:06:07.674Z,9.40
2019-02-27T05:08:37.878Z,8.67
2019-02-27T05:11:08.031Z,9.97
2019-02-27T05:13:38.145Z,9.10
2019-02-27T05:16:08.503Z,9.57
2019-02-27T05:18:38.510Z,10.03
2019-02-27T05:21:08.562Z,10.30
2019-02-27T05:23:38.662Z,10.47
2019-02-27T05:26:08.708Z,9.83
2019-02-27T05:28:38.864Z,10.97
2019-02-27T05:31:12.457Z,10.37
2019-02-27T05:33:42.550Z,11.20
2019-02-27T05:36:12.758Z,10.93
2019-02-27T05:38:43.646Z,10.77
2019-02-27T05:41:14.262Z,11.83
2019-02-27T05:43:48.553Z,11.90
2019-02-27T05:46:18.609Z,12.73
2019-02-27T05:48:50.829Z,12.37
2019-02-27T05:51:20.536Z,14.70
2019-02-27T05:53:50.739Z,15.33
2019-02-27T05:56:20.949Z,15.23
2019-02-27T05:58:51.203Z,14.10
2019-02-27T06:01:21.355Z,14.30
2019-02-27T06:03:53.089Z,13.50
2019-02-27T06:06:23.221Z,14.03
2019-02-27T06:08:53.314Z,12.27
2019-02-27T06:11:23.471Z,13.90
2019-02-27T06:13:53.548Z,14.43
2019-02-27T06:16:23.743Z,14.87
2019-02-27T06:18:55.990Z,15.10
2019-02-27T06:21:28.828Z,14.43
2019-02-27T06:23:58.966Z,14.33
2019-02-27T06:26:32.202Z,12.00
2019-02-27T06:29:01.012Z,13.00
2019-02-27T06:31:31.194Z,12.20
2019-02-27T06:34:01.336Z,14.80
2019-02-27T06:36:31.500Z,13.50
2019-02-27T06:39:01.687Z,12.30
2019-02-27T06:41:33.570Z,13.87
2019-02-27T06:44:03.855Z,13.80
2019-02-27T06:46:34.036Z,12.70
2019-02-27T06:49:04.144Z,14.23
2019-02-27T06:51:35.768Z,14.83
2019-02-27T06:54:06.090Z,14.37
2019-02-27T06:56:36.170Z,13.60
2019-02-27T06:59:06.460Z,14.30
2019-02-27T07:01:37.267Z,13.80
2019-02-27T07:04:08.199Z,15.00
2019-02-27T07:06:38.474Z,14.00
2019-02-27T07:09:27.596Z,13.77
2019-02-27T07:11:57.791Z,14.00
2019-02-27T07:14:27.917Z,13.13
2019-02-27T07:16:59.291Z,13.50
2019-02-27T07:19:29.349Z,12.17
2019-02-27T07:21:59.497Z,11.97
2019-02-27T07:24:30.580Z,13.33
2019-02-27T07:27:01.435Z,12.33
2019-02-27T07:29:31.644Z,12.50
2019-02-27T07:32:01.770Z,13.93
2019-02-27T07:34:31.862Z,12.37
2019-02-27T07:37:02.109Z,12.63
2019-02-27T07:39:32.766Z,12.17
2019-02-27T07:42:03.738Z,12.30
2019-02-27T07:44:35.006Z,11.70
2019-02-27T07:47:05.769Z,11.57
2019-02-27T07:49:35.969Z,12.90
2019-02-27T07:52:06.151Z,12.03
2019-02-27T07:54:36.235Z,12.43
2019-02-27T07:57:06.457Z,11.70
2019-02-27T07:59:38.117Z,12.67
2019-02-27T08:02:08.615Z,11.95
2019-02-27T08:04:38.852Z,12.20
2019-02-27T08:07:10.001Z,12.40
2019-02-27T08:09:40.840Z,11.97
2019-02-27T08:12:11.108Z,12.57
2019-02-27T08:14:41.347Z,11.23
2019-02-27T08:17:17.751Z,11.90
2019-02-27T08:19:45.327Z,12.30
2019-02-27T08:22:15.342Z,13.63
2019-02-27T08:24:47.775Z,12.33
2019-02-27T08:27:18.272Z,12.50
2019-02-27T08:29:48.553Z,12.33
2019-02-27T08:32:18.795Z,11.30
2019-02-27T08:34:48.852Z,13.13
2019-02-27T08:37:20.304Z,12.00
2019-02-27T08:39:50.599Z,11.20
2019-02-27T08:42:20.672Z,11.20
2019-02-27T08:44:50.890Z,11.47
2019-02-27T08:47:22.076Z,11.20
2019-02-27T08:49:57.592Z,11.50
2019-02-27T08:52:24.169Z,10.43
2019-02-27T08:54:54.246Z,9.50
2019-02-27T08:57:24.285Z,9.80
2019-02-27T08:59:54.391Z,9.70
2019-02-27T09:02:29.205Z,10.85
2019-02-27T09:04:56.266Z,9.23
2019-02-27T09:07:26.556Z,8.70
2019-02-27T09:09:56.747Z,9.35
2019-02-27T09:12:26.872Z,8.93
2019-02-27T09:14:57.034Z,9.00
2019-02-27T09:17:27.839Z,10.10
2019-02-27T09:19:58.236Z,9.80
2019-02-27T09:22:28.366Z,8.68
2019-02-27T09:24:58.555Z,9.25
2019-02-27T09:27:28.713Z,8.50
2019-02-27T09:29:58.851Z,8.60
2019-02-27T09:32:28.989Z,8.55
2019-02-27T09:34:59.592Z,8.63
2019-02-27T09:37:30.331Z,7.40
2019-02-27T09:40:04.779Z,7.28
2019-02-27T09:42:32.319Z,6.97
2019-02-27T09:45:02.518Z,6.53
2019-02-27T09:47:33.220Z,7.08
2019-02-27T09:50:03.463Z,6.30
2019-02-27T09:52:34.756Z,6.25
2019-02-27T09:55:05.207Z,5.10
2019-02-27T09:57:36.769Z,5.35
2019-02-27T10:00:26.600Z,4.67
2019-02-27T10:02:58.253Z,4.60
2019-02-27T10:05:28.671Z,5.12
2019-02-27T10:07:59.153Z,6.12
2019-02-27T10:10:29.561Z,6.65
2019-02-27T10:12:59.903Z,7.10
2019-02-27T10:15:30.359Z,6.78
2019-02-27T10:18:00.564Z,6.92
2019-02-27T10:20:30.961Z,6.20
2019-02-27T10:23:01.119Z,6.33
2019-02-27T10:25:31.366Z,4.87
2019-02-27T10:28:04.305Z,4.37
2019-02-27T10:30:34.341Z,5.20
2019-02-27T10:33:04.663Z,5.62
2019-02-27T10:35:35.013Z,5.50
2019-02-27T10:38:05.139Z,5.15
2019-02-27T10:40:35.554Z,5.20
2019-02-27T10:43:05.683Z,4.45
2019-02-27T10:45:35.872Z,4.92
2019-02-27T10:48:06.107Z,4.25
2019-02-27T10:50:36.458Z,4.53
2019-02-27T10:53:06.724Z,4.45
2019-02-27T10:55:36.881Z,4.42
2019-02-27T10:58:19.101Z,5.47
2019-02-27T11:00:51.237Z,4.20
2019-02-27T11:03:23.667Z,4.83
2019-02-27T11:05:55.534Z,4.15
2019-02-27T11:08:28.898Z,3.62
2019-02-27T11:10:58.066Z,3.40
2019-02-27T11:13:28.297Z,3.77
2019-02-27T11:15:58.434Z,2.85
2019-02-27T11:18:28.541Z,3.62
2019-02-27T11:20:59.282Z,3.12
2019-02-27T11:23:29.942Z,3.30
2019-02-27T11:26:00.157Z,3.42
2019-02-27T11:28:30.481Z,3.77
2019-02-27T11:31:00.793Z,2.87
2019-02-27T11:33:33.463Z,4.15
2019-02-27T11:36:03.179Z,4.28
2019-02-27T11:38:34.834Z,4.45
2019-02-27T11:41:06.707Z,4.78
2019-02-27T11:43:37.933Z,4.25
2019-02-27T11:46:08.815Z,3.98
2019-02-27T11:48:39.078Z,3.50
2019-02-27T11:51:09.403Z,4.12
2019-02-27T11:53:40.636Z,5.08
2019-02-27T11:56:10.876Z,4.00
2019-02-27T11:58:41.274Z,4.53
2019-02-27T12:01:12.271Z,4.80
2019-02-27T12:03:45.696Z,4.50
2019-02-27T12:06:14.553Z,4.45
2019-02-27T12:08:44.816Z,4.62
2019-02-27T12:11:15.098Z,4.25
2019-02-27T12:13:45.206Z,4.53
2019-02-27T12:16:18.326Z,3.80
2019-02-27T12:18:47.359Z,5.25
2019-02-27T12:21:17.490Z,4.40
2019-02-27T12:23:47.696Z,5.20
2019-02-27T12:26:17.845Z,4.92
2019-02-27T12:28:52.463Z,5.35
2019-02-27T12:31:19.886Z,4.53
2019-02-27T12:33:50.234Z,4.37
2019-02-27T12:36:20.499Z,4.37
2019-02-27T12:38:50.652Z,4.25
2019-02-27T12:41:20.856Z,4.20
2019-02-27T12:43:52.547Z,5.10
2019-02-27T12:46:23.307Z,4.33
2019-02-27T12:48:53.424Z,4.90
2019-02-27T12:51:23.507Z,4.05
2019-02-27T12:53:54.558Z,5.08
2019-02-27T12:56:25.390Z,5.25
2019-02-27T12:58:58.326Z,5.08
2019-02-27T13:01:27.605Z,4.70
2019-02-27T13:03:57.736Z,5.55
2019-02-27T13:06:28.061Z,4.90
2019-02-27T13:08:58.505Z,5.22
2019-02-27T13:11:28.796Z,5.72
2019-02-27T13:13:59.719Z,5.53
2019-02-27T13:16:30.574Z,4.70
2019-02-27T13:19:00.746Z,5.22
2019-02-27T13:21:30.878Z,5.37
2019-02-27T13:24:01.113Z,5.12
2019-02-27T13:26:31.529Z,5.08
2019-02-27T13:29:03.027Z,5.42
2019-02-27T13:31:33.163Z,4.78
2019-02-27T13:34:03.375Z,4.87
2019-02-27T13:36:34.119Z,5.33
2019-02-27T13:39:08.310Z,5.40
2019-02-27T13:41:39.429Z,5.05
2019-02-27T13:44:09.609Z,5.58
2019-02-27T13:46:39.715Z,6.28
2019-02-27T13:49:11.378Z,5.85
2019-02-27T13:51:41.823Z,5.67
2019-02-27T13:54:12.150Z,6.00
2019-02-27T13:56:42.388Z,6.28
2019-02-27T13:59:12.466Z,5.80
2019-02-27T14:01:43.830Z,6.25
2019-02-27T14:04:14.031Z,6.80
2019-02-27T14:06:47.321Z,5.62
2019-02-27T14:09:19.028Z,7.22
2019-02-27T14:11:49.483Z,6.42
2019-02-27T14:14:19.791Z,6.60
2019-02-27T14:16:50.010Z,7.03
2019-02-27T14:19:21.322Z,7.30
2019-02-27T14:21:52.204Z,6.60
2019-02-27T14:24:22.383Z,6.05
2019-02-27T14:26:52.649Z,5.42
2019-02-27T14:29:26.085Z,5.47
2019-02-27T14:31:55.667Z,6.10
2019-02-27T14:34:27.416Z,6.35
2019-02-27T14:36:57.694Z,6.58
2019-02-27T14:39:29.660Z,6.10
2019-02-27T14:41:59.693Z,6.72
2019-02-27T14:44:31.584Z,6.85
2019-02-27T14:47:01.754Z,7.33
2019-02-27T14:49:31.966Z,6.55
2019-02-27T14:52:02.215Z,6.60
2019-02-27T14:54:32.513Z,6.67
2019-02-27T14:57:02.724Z,6.33
2019-02-27T14:59:32.974Z,6.10
2019-02-27T15:02:03.108Z,6.87
2019-02-27T15:04:33.420Z,5.83
2019-02-27T15:07:03.614Z,8.23
2019-02-27T15:09:36.068Z,6.87
2019-02-27T15:12:05.785Z,7.85
2019-02-27T15:14:36.051Z,7.35
2019-02-27T15:17:06.818Z,7.40
2019-02-27T15:19:37.313Z,7.15
2019-02-27T15:22:07.670Z,7.55
2019-02-27T15:24:38.130Z,8.08
2019-02-27T15:27:08.475Z,7.42
2019-02-27T15:29:39.604Z,8.15
2019-02-27T15:32:11.623Z,7.20
2019-02-27T15:34:42.710Z,7.72
2019-02-27T15:37:14.955Z,8.00
2019-02-27T15:39:57.115Z,7.03
2019-02-27T15:42:27.340Z,7.92
2019-02-27T15:44:57.582Z,7.80
2019-02-27T15:47:30.307Z,7.97
2019-02-27T15:50:02.021Z,8.40
2019-02-27T15:52:34.169Z,10.53
2019-02-27T15:55:04.917Z,8.43
2019-02-27T15:57:35.429Z,8.20
2019-02-27T16:00:07.370Z,7.72
2019-02-27T16:02:38.609Z,7.22
2019-02-27T16:05:10.198Z,7.60
2019-02-27T16:07:41.120Z,8.65
2019-02-27T16:10:14.651Z,7.50
2019-02-27T16:12:45.052Z,8.08
2019-02-27T16:15:17.722Z,8.93
2019-02-27T16:17:48.229Z,8.35
2019-02-27T16:20:19.188Z,8.23
2019-02-27T16:22:49.480Z,9.50
2019-02-27T16:25:21.264Z,11.63
2019-02-27T16:27:51.426Z,11.03
2019-02-27T16:30:24.043Z,8.85
2019-02-27T16:32:54.465Z,10.03
2019-02-27T16:35:24.748Z,10.65
2019-02-27T16:37:57.570Z,11.25
2019-02-27T16:40:27.030Z,10.53
2019-02-27T16:42:57.334Z,10.43
2019-02-27T16:45:31.934Z,10.95
2019-02-27T16:48:02.016Z,9.58
2019-02-27T16:50:32.310Z,9.78
2019-02-27T16:53:02.507Z,10.53
2019-02-27T16:55:35.606Z,10.60
2019-02-27T16:58:04.804Z,9.90
2019-02-27T17:00:35.628Z,11.30
2019-02-27T17:03:05.865Z,11.05
2019-02-27T17:05:35.997Z,11.60
2019-02-27T17:08:06.341Z,11.75
2019-02-27T17:10:36.647Z,11.88
2019-02-27T17:13:07.042Z,11.93
2019-02-27T17:15:40.030Z,12.82
2019-02-27T17:18:12.696Z,12.58
2019-02-27T17:20:46.032Z,12.78
2019-02-27T17:23:14.198Z,13.32
2019-02-27T17:25:44.476Z,13.85
2019-02-27T17:28:14.723Z,12.20
2019-02-27T17:30:44.966Z,11.55
2019-02-27T17:33:15.877Z,12.00
2019-02-27T17:35:46.163Z,13.35
2019-02-27T17:38:16.309Z,14.13
2019-02-27T17:40:46.679Z,15.03
2019-02-27T17:43:17.163Z,15.45
2019-02-27T17:45:47.655Z,16.50
2019-02-27T17:48:18.972Z,17.05
2019-02-27T17:50:49.319Z,16.48
2019-02-27T17:53:20.306Z,17.60
2019-02-27T17:55:51.660Z,17.73
2019-02-27T17:58:22.208Z,17.55
2019-02-27T18:00:55.544Z,17.07
2019-02-27T18:03:25.902Z,18.77
2019-02-27T18:05:58.992Z,18.55
2019-02-27T18:08:28.197Z,18.42
2019-02-27T18:10:58.389Z,18.32
2019-02-27T18:13:28.607Z,17.98
2019-02-27T18:15:58.943Z,20.52
2019-02-27T18:18:29.530Z,19.60
2019-02-27T18:21:00.334Z,21.45
2019-02-27T18:23:30.885Z,21.27
2019-02-27T18:26:01.249Z,21.90
2019-02-27T18:28:33.580Z,21.55
2019-02-27T18:31:15.700Z,22.13
2019-02-27T18:33:49.502Z,21.60
2019-02-27T18:36:18.129Z,25.08
2019-02-27T18:38:49.306Z,22.93
2019-02-27T18:41:20.138Z,24.70
2019-02-27T18:44:04.464Z,22.73
2019-02-27T18:46:35.351Z,23.15
2019-02-27T18:49:06.443Z,24.18
2019-02-27T18:51:36.714Z,25.65
2019-02-27T18:54:07.156Z,23.85
2019-02-27T18:56:40.285Z,26.87
2019-02-27T18:59:09.489Z,27.87
2019-02-27T19:01:41.395Z,24.95
2019-02-27T19:04:11.720Z,26.87
2019-02-27T19:06:43.123Z,27.60
2019-02-27T19:09:13.798Z,28.77
2019-02-27T19:11:44.305Z,27.87
2019-02-27T19:14:15.754Z,28.40
2019-02-27T19:16:45.920Z,26.85
2019-02-27T19:19:16.311Z,28.00
2019-02-27T19:21:46.936Z,27.62
2019-02-27T19:24:17.248Z,27.25
2019-02-27T19:26:49.429Z,29.42
2019-02-27T19:29:19.594Z,28.90
2019-02-27T19:31:51.645Z,30.23
2019-02-27T19:34:22.954Z,30.08
2019-02-27T19:36:53.260Z,28.90
2019-02-27T19:39:23.458Z,30.82
2019-02-27T19:41:53.977Z,30.37
2019-02-27T19:44:28.589Z,30.72
2019-02-27T19:46:56.642Z,30.05
2019-02-27T19:49:27.172Z,31.50
2019-02-27T19:51:57.499Z,31.27
2019-02-27T19:54:30.814Z,32.25
2019-02-27T19:57:01.110Z,33.92
2019-02-27T19:59:31.498Z,31.93
2019-02-27T20:02:01.857Z,28.62
2019-02-27T20:04:32.478Z,30.77
2019-02-27T20:07:02.810Z,34.70
2019-02-27T20:09:33.292Z,32.90
2019-02-27T20:12:06.703Z,34.08
2019-02-27T20:14:38.655Z,33.23
2019-02-27T20:17:18.666Z,33.63
2019-02-27T20:19:50.655Z,36.35
2019-02-27T20:22:20.907Z,32.60
2019-02-27T20:24:51.120Z,35.35
2019-02-27T20:27:21.660Z,35.25
2019-02-27T20:29:51.918Z,33.60
2019-02-27T20:32:22.274Z,34.20
2019-02-27T20:34:52.580Z,34.20
2019-02-27T20:37:22.735Z,33.92
2019-02-27T20:39:58.343Z,35.73
2019-02-27T20:42:26.455Z,35.60
2019-02-27T20:44:56.701Z,31.77
2019-02-27T20:47:27.185Z,33.18
2019-02-27T20:49:57.486Z,36.05
2019-02-27T20:52:27.686Z,27.70
2019-02-27T20:54:58.813Z,34.70
2019-02-27T20:57:30.078Z,32.05
2019-02-27T21:00:02.165Z,31.97
2019-02-27T21:02:34.040Z,33.83
2019-02-27T21:05:06.734Z,34.45
2019-02-27T21:07:36.412Z,32.80
2019-02-27T21:10:08.618Z,37.13
2019-02-27T21:12:40.799Z,34.73
2019-02-27T21:15:12.106Z,32.45
2019-02-27T21:17:42.459Z,35.55
2019-02-27T21:20:13.108Z,33.05
2019-02-27T21:22:43.435Z,33.60
2019-02-27T21:25:15.038Z,33.20
2019-02-27T21:27:46.026Z,34.95
2019-02-27T21:30:18.911Z,35.78
2019-02-27T21:32:49.451Z,33.67
2019-02-27T21:35:19.978Z,34.35
2019-02-27T21:37:51.072Z,35.63
2019-02-27T21:40:21.563Z,32.80
2019-02-27T21:42:52.006Z,34.90
2019-02-27T21:45:22.371Z,34.15
2019-02-27T21:47:52.926Z,35.50
2019-02-27T21:50:23.608Z,31.45
2019-02-27T21:52:54.727Z,27.58
2019-02-27T21:55:26.155Z,32.20
2019-02-27T21:57:58.092Z,33.13
2019-02-27T22:00:30.529Z,34.43
2019-02-27T22:03:03.704Z,34.23
2019-02-27T22:05:42.300Z,29.07
2019-02-27T22:08:05.483Z,34.38
2019-02-27T22:10:36.423Z,31.75
2019-02-27T22:13:10.492Z,32.78
2019-02-27T22:15:38.586Z,35.30
2019-02-27T22:18:11.857Z,31.50
2019-02-27T22:20:40.689Z,34.83
2019-02-27T22:23:12.705Z,34.70
2019-02-27T22:25:43.006Z,32.80
2019-02-27T22:28:13.414Z,32.78
2019-02-27T22:30:43.883Z,35.15
2019-02-27T22:33:14.129Z,32.40
2019-02-27T22:35:44.373Z,32.98
2019-02-27T22:38:14.493Z,34.83
2019-02-27T22:40:44.634Z,35.48
2019-02-27T22:43:14.851Z,30.80
2019-02-27T22:45:45.021Z,33.78
2019-02-27T22:48:15.280Z,33.65
2019-02-27T22:50:45.582Z,34.25
2019-02-27T22:53:15.855Z,32.98
2019-02-27T22:55:46.086Z,34.85
2019-02-27T22:58:16.539Z,34.00
2019-02-27T23:01:10.088Z,32.75
2019-02-27T23:03:48.476Z,34.25
2019-02-27T23:06:18.810Z,33.88
2019-02-27T23:08:49.197Z,34.00
2019-02-27T23:11:19.666Z,35.90
2019-02-27T23:13:50.027Z,35.70
2019-02-27T23:16:21.042Z,34.23
2019-02-27T23:18:51.223Z,34.90
2019-02-27T23:21:21.482Z,33.88
2019-02-27T23:23:51.591Z,32.33
2019-02-27T23:26:21.794Z,34.45
2019-02-27T23:28:52.016Z,32.15
2019-02-27T23:31:23.671Z,30.77
2019-02-27T23:33:53.972Z,33.30
2019-02-27T23:36:24.328Z,32.98
2019-02-27T23:38:54.620Z,30.80
2019-02-27T23:41:24.858Z,33.75
2019-02-27T23:43:55.012Z,31.33
2019-02-27T23:46:25.166Z,31.52
2019-02-27T23:48:57.440Z,33.58
2019-02-27T23:51:27.617Z,34.43
2019-02-27T23:53:58.598Z,33.53
2019-02-27T23:56:29.706Z,33.53
2019-02-27T23:59:02.739Z,33.70
